Time;durP1;ratioP1;P1;durP2;ratioP2;P2;SDS_P1;SDS_P2;PMS_P1;PMS_P2;Temp;Humidity;BMP_temperature;BMP_pressure;BME280_temperature;BME280_humidity;BME280_pressure;Samples;Min_cycle;Max_cycle;Signal;HPM_P1;HPM_P2
2021/07/04 00:53:03;;;;;;;8.37;7.67;;;17.70;99.90;;;;;;5577903;25;20433;-84
2021/07/04 00:55:34;;;;;;;7.70;7.10;;;17.80;99.90;;;;;;5718583;24;20504;-84
2021/07/04 00:58:02;;;;;;;8.23;7.53;;;17.80;99.90;;;;;;6017974;23;20456;-84
2021/07/04 01:00:30;;;;;;;9.27;8.43;;;17.90;99.90;;;;;;6022059;23;20406;-86
2021/07/04 01:02:58;;;;;;;8.83;8.13;;;17.90;99.90;;;;;;6021914;23;20402;-86
2021/07/04 01:05:27;;;;;;;7.83;7.13;;;17.90;99.90;;;;;;6021592;23;20456;-86
2021/07/04 01:07:54;;;;;;;7.80;7.00;;;17.90;99.90;;;;;;6022288;23;20517;-86
2021/07/04 01:10:25;;;;;;;9.53;7.17;;;17.90;99.90;;;;;;6022366;23;20435;-86
2021/07/04 01:12:55;;;;;;;6.60;6.07;;;17.80;99.90;;;;;;6040414;23;20433;-85
2021/07/04 01:15:25;;;;;;;7.83;7.10;;;17.80;99.90;;;;;;6051048;23;20415;-84
2021/07/04 01:17:53;;;;;;;6.50;5.90;;;17.80;99.90;;;;;;6051708;23;20441;-85
2021/07/04 01:20:22;;;;;;;8.50;7.70;;;17.80;99.90;;;;;;6052353;23;20412;-86
2021/07/04 01:22:55;;;;;;;7.63;7.03;;;17.70;99.90;;;;;;6050898;23;20420;-87
2021/07/04 01:25:22;;;;;;;6.73;6.13;;;17.70;99.90;;;;;;6050660;23;20440;-85
2021/07/04 01:27:49;;;;;;;8.13;6.90;;;17.70;99.90;;;;;;6050756;23;20464;-85
2021/07/04 01:30:18;;;;;;;7.80;7.10;;;17.60;99.90;;;;;;6051140;23;20426;-85
2021/07/04 01:32:45;;;;;;;7.50;6.80;;;17.60;99.90;;;;;;6050392;23;20956;-85
2021/07/04 01:35:13;;;;;;;8.90;7.23;;;17.60;99.90;;;;;;6050968;23;20428;-85
2021/07/04 01:37:42;;;;;;;8.60;7.90;;;17.60;99.90;;;;;;6050533;23;20445;-86
2021/07/04 01:40:12;;;;;;;7.73;7.03;;;17.50;99.90;;;;;;6051020;23;20416;-86
2021/07/04 01:42:41;;;;;;;9.30;8.40;;;17.50;99.90;;;;;;6051017;23;20419;-86
2021/07/04 01:45:09;;;;;;;8.17;7.40;;;17.50;99.90;;;;;;6050751;23;20446;-86
2021/07/04 01:47:39;;;;;;;7.63;6.93;;;17.40;99.90;;;;;;6050047;23;20459;-86
2021/07/04 01:50:08;;;;;;;8.90;7.93;;;17.50;99.90;;;;;;6051310;23;20427;-86
2021/07/04 01:52:41;;;;;;;6.73;6.13;;;17.50;99.90;;;;;;6050119;23;20418;-85
2021/07/04 02:19:41;;;;;;;8.80;8.00;;;17.30;99.90;;;;;;5689681;24;20996;-85
2021/07/04 02:32:12;;;;;;;8.30;7.60;;;17.20;99.90;;;;;;5680808;25;21033;-85
2021/07/04 02:34:40;;;;;;;8.47;7.77;;;17.20;99.90;;;;;;5796261;24;20930;-85
2021/07/04 02:37:07;;;;;;;10.43;9.43;;;17.20;99.90;;;;;;5883804;24;20446;-85
2021/07/04 02:39:34;;;;;;;10.80;9.80;;;17.20;99.90;;;;;;5962137;23;20420;-86
2021/07/04 02:42:00;;;;;;;9.67;8.87;;;17.10;99.90;;;;;;6023668;23;20420;-86
2021/07/04 02:44:27;;;;;;;9.37;8.57;;;17.00;99.90;;;;;;6023178;23;20956;-85
2021/07/04 02:46:54;;;;;;;10.13;9.23;;;17.10;99.90;;;;;;6024305;23;20443;-86
2021/07/04 02:49:20;;;;;;;9.30;8.60;;;17.10;99.90;;;;;;6024473;23;20432;-86
2021/07/04 02:51:48;;;;;;;9.67;8.97;;;17.10;99.90;;;;;;6023663;23;20419;-85
2021/07/04 02:54:15;;;;;;;9.27;8.37;;;17.10;99.90;;;;;;6023445;23;20420;-85
2021/07/04 02:56:42;;;;;;;8.80;8.00;;;17.10;99.90;;;;;;6023274;23;20483;-85
2021/07/04 02:59:08;;;;;;;8.73;7.93;;;17.10;99.90;;;;;;6023607;23;20506;-85
2021/07/04 03:01:37;;;;;;;10.07;9.27;;;17.10;99.90;;;;;;6023536;23;20795;-85
2021/07/04 03:04:04;;;;;;;8.67;7.93;;;17.10;99.90;;;;;;6024244;23;20415;-85
2021/07/04 03:06:30;;;;;;;8.33;7.63;;;17.20;99.90;;;;;;6023460;23;20427;-85
2021/07/04 03:08:59;;;;;;;9.03;8.23;;;17.20;99.90;;;;;;6023123;23;20467;-85
2021/07/04 03:11:25;;;;;;;9.50;8.63;;;17.30;99.90;;;;;;6023758;23;20426;-85
2021/07/04 03:13:52;;;;;;;9.43;8.40;;;17.30;99.90;;;;;;6051532;23;20913;-85
2021/07/04 03:16:19;;;;;;;9.43;8.53;;;17.30;99.90;;;;;;6051940;23;20419;-85
2021/07/04 03:18:47;;;;;;;10.03;9.17;;;17.30;99.90;;;;;;6051469;23;20436;-85
2021/07/04 03:21:14;;;;;;;9.60;8.80;;;17.30;99.90;;;;;;6051576;23;20419;-85
2021/07/04 03:23:41;;;;;;;8.70;7.90;;;17.40;99.90;;;;;;6050832;23;20420;-85
2021/07/04 03:26:09;;;;;;;10.77;9.77;;;17.40;99.90;;;;;;6050870;23;20453;-85
2021/07/04 03:28:38;;;;;;;10.10;9.20;;;17.40;99.90;;;;;;6051616;23;20441;-85
2021/07/04 03:31:05;;;;;;;10.37;9.37;;;17.40;99.90;;;;;;6051563;23;20420;-85
2021/07/04 03:33:31;;;;;;;8.23;7.50;;;17.50;99.90;;;;;;6050601;23;20892;-85
2021/07/04 03:35:58;;;;;;;9.30;8.60;;;17.50;99.90;;;;;;6051324;23;20411;-85
2021/07/04 03:38:25;;;;;;;11.00;10.10;;;17.50;99.90;;;;;;6050569;23;21018;-85
2021/07/04 03:40:52;;;;;;;9.67;8.83;;;17.50;99.90;;;;;;6051752;23;20492;-85
2021/07/04 03:43:21;;;;;;;9.17;8.47;;;17.50;99.90;;;;;;6051046;23;20416;-85
2021/07/04 03:45:52;;;;;;;8.80;8.00;;;17.60;99.90;;;;;;6051546;23;20447;-85
2021/07/04 03:48:19;;;;;;;9.73;8.83;;;17.70;99.90;;;;;;6051207;23;20433;-85
2021/07/04 03:50:46;;;;;;;8.83;7.70;;;17.70;99.90;;;;;;6051164;23;20483;-85
2021/07/04 03:53:16;;;;;;;9.93;9.13;;;17.70;99.90;;;;;;6051186;23;20424;-85
2021/07/04 03:55:43;;;;;;;9.17;8.20;;;17.70;99.90;;;;;;6050700;23;20421;-85
2021/07/04 03:58:09;;;;;;;7.93;7.13;;;17.70;99.90;;;;;;6051018;23;20433;-85
2021/07/04 04:00:38;;;;;;;8.80;8.10;;;17.70;99.90;;;;;;6050776;23;20416;-85
2021/07/04 04:03:04;;;;;;;7.03;6.40;;;17.70;99.90;;;;;;6051200;23;20979;-85
2021/07/04 04:05:31;;;;;;;8.57;7.77;;;17.80;99.90;;;;;;6051025;23;20448;-85
2021/07/04 04:07:58;;;;;;;8.37;6.80;;;17.80;99.90;;;;;;6050619;23;20440;-85
2021/07/04 04:10:25;;;;;;;8.00;7.30;;;17.80;99.90;;;;;;6051184;23;20434;-85
2021/07/04 04:12:51;;;;;;;12.93;8.20;;;17.80;99.90;;;;;;6050008;23;20431;-85
2021/07/04 04:15:18;;;;;;;7.77;7.17;;;17.90;99.90;;;;;;6050386;23;20413;-85
2021/07/04 04:17:46;;;;;;;8.40;7.60;;;17.90;99.90;;;;;;6051383;23;20429;-85
2021/07/04 04:20:14;;;;;;;8.23;7.63;;;18.00;99.90;;;;;;6051339;23;20413;-85
2021/07/04 04:22:40;;;;;;;9.13;8.20;;;18.00;99.90;;;;;;6051186;23;20420;-86
2021/07/04 04:25:09;;;;;;;7.40;6.80;;;18.10;99.90;;;;;;6051258;23;20784;-85
2021/07/04 04:27:36;;;;;;;8.70;7.93;;;18.10;99.90;;;;;;6051245;23;20870;-85
2021/07/04 04:30:06;;;;;;;7.90;7.30;;;18.20;99.90;;;;;;6051201;23;20474;-85
2021/07/04 04:32:33;;;;;;;6.30;5.70;;;18.30;99.90;;;;;;6051190;23;20427;-85
2021/07/04 04:35:04;;;;;;;7.47;6.53;;;18.30;99.90;;;;;;6051081;23;20415;-85
2021/07/04 04:37:31;;;;;;;6.60;6.10;;;18.40;99.90;;;;;;6050746;23;20847;-85
2021/07/04 04:39:57;;;;;;;7.47;6.80;;;18.40;99.90;;;;;;6051394;23;20412;-85
2021/07/04 04:42:30;;;;;;;7.43;6.73;;;18.50;99.90;;;;;;6050994;23;20426;-86
2021/07/04 04:44:57;;;;;;;8.37;7.67;;;18.50;99.90;;;;;;6055936;23;20441;-84
2021/07/04 04:47:23;;;;;;;7.73;6.83;;;18.60;99.90;;;;;;6065689;23;20440;-84
2021/07/04 04:49:53;;;;;;;8.03;6.63;;;18.60;99.90;;;;;;6066135;23;20488;-84
2021/07/04 04:52:22;;;;;;;7.87;7.10;;;18.60;99.90;;;;;;6053772;23;20509;-85
2021/07/04 04:54:52;;;;;;;7.30;6.70;;;18.70;99.90;;;;;;6050696;23;20793;-86
2021/07/04 04:57:20;;;;;;;7.03;6.47;;;18.70;99.90;;;;;;6050712;23;20510;-85
2021/07/04 04:59:47;;;;;;;6.97;6.37;;;18.70;99.90;;;;;;6050657;23;20417;-85
2021/07/04 05:02:13;;;;;;;7.87;7.30;;;18.70;99.90;;;;;;6050569;23;20413;-86
2021/07/04 05:04:40;;;;;;;7.50;6.90;;;18.70;99.90;;;;;;6051557;23;20417;-85
2021/07/04 05:07:08;;;;;;;7.90;7.23;;;18.70;99.90;;;;;;6050532;23;20496;-85
2021/07/04 05:41:14;;;;;;;7.97;7.17;;;19.10;99.90;;;;;;5794781;24;20399;-87
2021/07/04 05:43:50;;;;;;;6.50;6.00;;;19.10;99.90;;;;;;5813971;24;20432;-86
2021/07/04 06:23:04;;;;;;;8.00;7.30;;;19.50;99.90;;;;;;6103726;23;20932;-85
2021/07/04 06:25:31;;;;;;;7.93;7.20;;;19.50;99.90;;;;;;6158235;23;20452;-85
2021/07/04 06:28:17;;;;;;;7.80;7.10;;;19.50;99.90;;;;;;6156582;23;20499;-85
2021/07/04 06:30:44;;;;;;;7.90;7.20;;;19.50;99.90;;;;;;6129395;23;20432;-84
2021/07/04 06:33:11;;;;;;;9.53;8.73;;;19.60;99.90;;;;;;6128701;23;20433;-84
2021/07/04 06:35:38;;;;;;;8.10;7.40;;;19.60;99.90;;;;;;6129728;23;20475;-84
2021/07/04 06:38:07;;;;;;;8.97;8.17;;;19.60;99.90;;;;;;6130058;23;20437;-84
2021/07/04 06:40:34;;;;;;;7.70;7.00;;;19.70;99.90;;;;;;6129352;23;20418;-84
2021/07/04 06:43:00;;;;;;;8.83;8.03;;;19.70;99.90;;;;;;6129535;23;20411;-84
2021/07/04 06:45:27;;;;;;;7.57;6.87;;;19.80;99.90;;;;;;6129157;23;20415;-83
2021/07/04 06:47:54;;;;;;;8.93;7.90;;;19.90;99.90;;;;;;6127882;23;20434;-84
2021/07/04 06:50:21;;;;;;;7.67;6.90;;;19.90;99.90;;;;;;6127990;23;20410;-84
2021/07/04 06:52:49;;;;;;;7.17;6.47;;;20.00;99.90;;;;;;6128106;23;20416;-84
2021/07/04 06:55:18;;;;;;;7.47;6.77;;;20.00;99.90;;;;;;6127713;23;20407;-84
2021/07/04 06:57:45;;;;;;;7.83;7.10;;;20.00;99.90;;;;;;6128131;23;20413;-83
2021/07/04 07:00:14;;;;;;;6.90;6.40;;;20.00;99.90;;;;;;6128456;23;20415;-84
2021/07/04 07:02:41;;;;;;;7.83;7.33;;;20.00;99.90;;;;;;6128332;23;20439;-83
2021/07/04 07:05:10;;;;;;;7.93;7.17;;;20.00;99.90;;;;;;6127848;23;20996;-84
2021/07/04 07:07:37;;;;;;;6.70;6.10;;;20.00;99.90;;;;;;6127585;23;20494;-84
2021/07/04 07:10:05;;;;;;;7.43;6.80;;;20.10;99.90;;;;;;6128502;23;20428;-84
2021/07/04 07:12:33;;;;;;;6.07;5.57;;;20.20;99.90;;;;;;6133678;23;20480;-83
2021/07/04 07:15:00;;;;;;;6.57;5.97;;;20.30;99.90;;;;;;6132712;23;20414;-85
2021/07/04 07:17:27;;;;;;;6.87;6.07;;;20.40;99.90;;;;;;6130680;23;20483;-84
2021/07/04 07:19:54;;;;;;;7.20;6.60;;;20.50;99.90;;;;;;6127927;23;20490;-83
2021/07/04 07:22:21;;;;;;;6.37;5.87;;;20.70;99.90;;;;;;6126668;23;20403;-84
2021/07/04 07:24:48;;;;;;;7.10;6.50;;;20.90;99.90;;;;;;6126722;23;20931;-84
2021/07/04 07:27:15;;;;;;;6.40;5.90;;;21.20;99.90;;;;;;6127324;23;20445;-84
2021/07/04 07:29:44;;;;;;;7.50;6.90;;;21.40;99.90;;;;;;6127786;23;20438;-84
2021/07/04 07:32:11;;;;;;;5.83;5.43;;;21.50;99.90;;;;;;6126579;23;20419;-84
2021/07/04 07:34:38;;;;;;;6.67;6.17;;;21.70;99.90;;;;;;6126585;23;20416;-83
2021/07/04 07:37:05;;;;;;;6.20;5.60;;;21.80;99.90;;;;;;6126572;23;20445;-84
2021/07/04 07:39:32;;;;;;;6.30;5.70;;;22.00;99.90;;;;;;6128541;23;20471;-84
2021/07/04 07:41:59;;;;;;;6.60;6.00;;;22.20;99.90;;;;;;6127990;23;20414;-84
2021/07/04 07:44:26;;;;;;;6.27;5.77;;;22.20;99.90;;;;;;6128153;23;20419;-83
2021/07/04 07:46:54;;;;;;;6.70;6.07;;;22.30;99.90;;;;;;6127231;23;20410;-84
2021/07/04 07:49:21;;;;;;;6.17;5.77;;;22.30;99.90;;;;;;6127322;23;20773;-84
2021/07/04 07:51:50;;;;;;;6.67;6.17;;;22.30;99.90;;;;;;6127468;23;20618;-85
2021/07/04 07:54:17;;;;;;;7.70;7.10;;;22.30;99.90;;;;;;6127041;23;20418;-85
2021/07/04 07:56:44;;;;;;;6.70;6.07;;;22.30;99.90;;;;;;6126929;23;20448;-85
2021/07/04 07:59:11;;;;;;;7.27;6.77;;;22.30;99.90;;;;;;6128568;23;20435;-84
2021/07/04 08:01:37;;;;;;;6.93;6.43;;;22.30;99.90;;;;;;6127244;23;20413;-85
2021/07/04 08:04:06;;;;;;;6.43;5.87;;;22.20;99.90;;;;;;6126534;23;20436;-84
2021/07/04 08:06:33;;;;;;;7.00;6.50;;;22.20;99.90;;;;;;6126329;23;20896;-85
2021/07/04 08:08:59;;;;;;;6.27;5.87;;;22.10;99.90;;;;;;6127863;23;20433;-86
2021/07/04 08:11:26;;;;;;;6.40;5.90;;;22.10;99.90;;;;;;6127688;23;20441;-84
2021/07/04 08:13:53;;;;;;;7.00;6.43;;;22.20;99.90;;;;;;6127954;23;20748;-84
2021/07/04 08:16:20;;;;;;;6.33;5.90;;;22.20;99.90;;;;;;6130147;23;20446;-84
2021/07/04 08:18:47;;;;;;;8.73;8.03;;;22.20;99.90;;;;;;6137831;23;20439;-84
2021/07/04 08:21:15;;;;;;;6.73;6.13;;;22.40;99.90;;;;;;6134781;23;20420;-84
2021/07/04 08:23:42;;;;;;;6.97;6.50;;;22.50;99.90;;;;;;6132955;23;20429;-85
2021/07/04 08:26:08;;;;;;;7.40;6.83;;;22.70;99.90;;;;;;6132967;23;20477;-85
2021/07/04 08:28:36;;;;;;;6.67;6.17;;;22.90;99.90;;;;;;6135937;23;20434;-84
2021/07/04 08:31:03;;;;;;;7.80;7.10;;;23.10;99.90;;;;;;6137403;23;20411;-84
2021/07/04 08:33:30;;;;;;;7.20;6.60;;;23.30;99.90;;;;;;6138130;23;20427;-85
2021/07/04 08:35:57;;;;;;;5.70;5.37;;;23.50;99.90;;;;;;6136094;23;20451;-85
2021/07/04 08:38:25;;;;;;;7.00;6.40;;;23.70;99.90;;;;;;6134029;23;20432;-84
2021/07/04 08:40:52;;;;;;;6.00;5.50;;;23.90;99.90;;;;;;6132746;23;20416;-84
2021/07/04 08:43:27;;;;;;;6.57;6.07;;;24.10;99.90;;;;;;6132877;23;20768;-84
2021/07/04 08:45:55;;;;;;;6.17;5.77;;;24.30;99.80;;;;;;6134648;23;20736;-85
2021/07/04 08:48:22;;;;;;;6.70;6.20;;;24.50;99.90;;;;;;6135835;23;20432;-85
2021/07/04 08:50:49;;;;;;;6.33;5.57;;;24.70;99.70;;;;;;6136456;23;20407;-86
2021/07/04 08:53:16;;;;;;;6.30;5.83;;;24.80;99.10;;;;;;6136526;23;20418;-85
2021/07/04 08:55:45;;;;;;;5.37;4.97;;;25.00;98.50;;;;;;6136863;23;20412;-85
2021/07/04 08:58:12;;;;;;;6.53;5.97;;;25.00;97.60;;;;;;6137217;23;20441;-85
2021/07/04 09:00:39;;;;;;;5.30;4.87;;;25.00;97.90;;;;;;6133453;23;20415;-85
2021/07/04 09:03:25;;;;;;;4.30;3.90;;;25.10;98.20;;;;;;6133113;23;20416;-84
2021/07/04 09:05:52;;;;;;;6.10;5.50;;;25.20;96.70;;;;;;6133788;23;20412;-85
2021/07/04 09:08:20;;;;;;;5.40;4.90;;;25.30;96.60;;;;;;6131207;23;20421;-85
2021/07/04 09:11:13;;;;;;;4.70;4.30;;;25.40;95.60;;;;;;6134032;23;20745;-85
2021/07/04 09:13:41;;;;;;;5.50;5.07;;;25.60;95.50;;;;;;6131833;23;20405;-84
2021/07/04 09:16:10;;;;;;;5.80;5.37;;;25.70;95.70;;;;;;6132040;23;20451;-85
2021/07/04 09:18:38;;;;;;;6.20;5.70;;;25.80;95.70;;;;;;6133392;23;20508;-86
2021/07/04 09:21:19;;;;;;;4.43;4.13;;;25.90;95.10;;;;;;6133175;23;20737;-86
2021/07/04 09:23:46;;;;;;;3.97;3.70;;;25.80;94.90;;;;;;6133021;23;20417;-86
2021/07/04 09:26:42;;;;;;;3.90;3.60;;;25.90;93.60;;;;;;6131364;23;20441;-86
2021/07/04 09:29:10;;;;;;;4.23;3.93;;;25.90;94.10;;;;;;6130565;23;20943;-85
2021/07/04 09:31:39;;;;;;;4.70;4.33;;;26.00;93.90;;;;;;6132150;23;20408;-85
2021/07/04 09:34:07;;;;;;;4.60;4.20;;;26.10;93.80;;;;;;6131221;23;20420;-86
2021/07/04 09:36:35;;;;;;;4.50;3.93;;;26.20;94.00;;;;;;6130608;23;20456;-84
2021/07/04 09:39:14;;;;;;;5.50;5.00;;;26.40;93.80;;;;;;6130373;23;20749;-85
2021/07/04 09:42:03;;;;;;;5.00;4.60;;;26.60;93.90;;;;;;6130096;23;20403;-86
2021/07/04 09:44:29;;;;;;;5.33;4.93;;;26.80;93.70;;;;;;6131721;23;20393;-85
2021/07/04 09:47:15;;;;;;;4.73;4.43;;;27.00;92.60;;;;;;6129970;23;20410;-85
2021/07/04 09:49:42;;;;;;;5.30;4.90;;;27.10;91.90;;;;;;6130363;23;20461;-85
2021/07/04 09:52:17;;;;;;;5.40;5.00;;;27.10;92.00;;;;;;6130183;23;20416;-85
2021/07/04 09:54:55;;;;;;;5.00;4.70;;;27.10;92.40;;;;;;6129796;23;20473;-86
2021/07/04 09:57:23;;;;;;;4.87;4.57;;;27.20;92.00;;;;;;6128407;23;20502;-86
2021/07/04 10:00:10;;;;;;;4.40;4.10;;;27.20;91.80;;;;;;6128423;23;21114;-86
2021/07/04 10:02:37;;;;;;;5.23;4.80;;;27.20;91.70;;;;;;6126203;23;20487;-85
2021/07/04 10:05:12;;;;;;;6.30;5.90;;;27.40;91.70;;;;;;6129668;23;20412;-85
2021/07/04 10:08:23;;;;;;;5.37;4.60;;;27.50;91.40;;;;;;6128037;23;20403;-85
2021/07/04 10:10:51;;;;;;;5.00;4.60;;;27.60;91.30;;;;;;6134034;23;20413;-86
2021/07/04 10:13:19;;;;;;;5.40;5.00;;;27.70;91.10;;;;;;6127201;23;20631;-86
2021/07/04 10:15:45;;;;;;;5.53;5.13;;;27.70;90.80;;;;;;6128894;23;20416;-85
2021/07/04 10:18:14;;;;;;;3.90;3.60;;;27.70;90.70;;;;;;6125828;23;21006;-87
2021/07/04 10:20:43;;;;;;;4.83;4.43;;;27.60;90.60;;;;;;6127090;23;20512;-86
2021/07/04 10:23:12;;;;;;;4.60;4.30;;;27.40;90.40;;;;;;6129391;23;20423;-86
2021/07/04 10:25:39;;;;;;;4.87;4.47;;;27.10;90.50;;;;;;6130860;23;20403;-85
2021/07/04 10:28:07;;;;;;;5.37;4.83;;;26.80;90.60;;;;;;6134265;23;20438;-87
2021/07/04 10:30:35;;;;;;;4.60;4.30;;;26.60;91.10;;;;;;6134628;23;20410;-86
2021/07/04 10:33:16;;;;;;;4.40;4.10;;;26.50;91.30;;;;;;6126418;23;20412;-85
2021/07/04 10:36:05;;;;;;;4.40;4.10;;;26.40;92.00;;;;;;6135512;23;20404;-84
2021/07/04 10:38:55;;;;;;;4.43;4.13;;;26.30;91.90;;;;;;6124653;23;20524;-85
2021/07/04 10:41:24;;;;;;;4.00;3.70;;;26.30;91.70;;;;;;6129016;23;20461;-84
2021/07/04 10:43:57;;;;;;;4.60;4.30;;;26.30;91.70;;;;;;6133351;23;20442;-86
2021/07/04 10:47:01;;;;;;;4.57;4.27;;;26.40;91.60;;;;;;6132470;23;20406;-85
2021/07/04 10:49:38;;;;;;;3.70;3.50;;;26.20;91.70;;;;;;6126936;23;20771;-84
2021/07/04 10:52:07;;;;;;;4.30;4.00;;;25.90;91.70;;;;;;6124965;23;20402;-83
2021/07/04 10:55:05;;;;;;;4.90;4.50;;;25.80;91.70;;;;;;6127820;23;20416;-85
2021/07/04 10:57:34;;;;;;;4.07;3.80;;;25.70;91.80;;;;;;6132065;23;20519;-84
2021/07/04 11:00:34;;;;;;;5.63;4.30;;;25.70;91.40;;;;;;6128850;23;20427;-87
2021/07/04 11:03:02;;;;;;;3.90;3.70;;;25.60;92.00;;;;;;6134104;23;20411;-85
2021/07/04 11:05:48;;;;;;;4.27;3.97;;;25.50;92.20;;;;;;6130064;23;20487;-88
2021/07/04 11:08:33;;;;;;;3.80;3.50;;;25.50;92.50;;;;;;6127663;23;20538;-82
2021/07/04 11:11:03;;;;;;;4.20;3.90;;;25.60;92.30;;;;;;6134202;23;20402;-82
2021/07/04 11:13:43;;;;;;;4.67;4.27;;;25.60;92.50;;;;;;6133756;23;20457;-82
2021/07/04 11:16:25;;;;;;;5.07;4.57;;;25.70;93.00;;;;;;6133002;23;20400;-82
2021/07/04 11:19:05;;;;;;;4.50;4.20;;;25.90;92.90;;;;;;6140253;23;20529;-82
2021/07/04 11:21:54;;;;;;;5.27;4.87;;;26.00;92.50;;;;;;6147159;23;20432;-80
2021/07/04 11:24:22;;;;;;;4.47;4.17;;;25.90;92.00;;;;;;6136561;23;20406;-81
2021/07/04 11:27:35;;;;;;;4.20;3.90;;;26.00;91.80;;;;;;6140436;23;20413;-82
2021/07/04 11:30:24;;;;;;;4.23;3.83;;;26.00;92.60;;;;;;6052789;23;20445;-82
2021/07/04 11:33:27;;;;;;;4.70;4.40;;;26.00;92.20;;;;;;6134607;23;20432;-81
2021/07/04 11:35:56;;;;;;;4.10;3.80;;;26.20;91.30;;;;;;6134317;23;20417;-84
2021/07/04 11:38:26;;;;;;;4.77;4.47;;;26.20;91.30;;;;;;6133681;23;20537;-82
2021/07/04 11:40:54;;;;;;;4.37;4.07;;;26.30;91.30;;;;;;6133865;23;20407;-83
2021/07/04 11:43:22;;;;;;;4.13;3.83;;;26.50;91.40;;;;;;6133257;23;20403;-82
2021/07/04 11:45:51;;;;;;;4.83;4.43;;;26.60;91.10;;;;;;6133987;23;20418;-82
2021/07/04 11:48:19;;;;;;;3.90;3.60;;;26.70;90.70;;;;;;6133633;23;20459;-83
2021/07/04 11:50:48;;;;;;;4.90;4.50;;;26.80;90.50;;;;;;6136389;23;20413;-82
2021/07/04 11:53:15;;;;;;;4.07;3.77;;;26.90;90.40;;;;;;6142124;23;20412;-84
2021/07/04 11:56:00;;;;;;;3.83;3.53;;;26.90;89.20;;;;;;6138239;23;20497;-85
2021/07/04 11:58:28;;;;;;;3.93;3.63;;;26.80;89.70;;;;;;6136993;23;20464;-82
2021/07/04 12:00:55;;;;;;;5.27;4.87;;;26.60;90.90;;;;;;6133784;23;20418;-85
2021/07/04 12:03:23;;;;;;;4.77;4.47;;;26.50;90.70;;;;;;6133798;23;20925;-83
2021/07/04 12:05:51;;;;;;;5.10;4.70;;;26.30;90.70;;;;;;6133822;23;20416;-83
2021/07/04 12:08:18;;;;;;;4.80;4.50;;;26.20;91.00;;;;;;6126587;23;20441;-83
2021/07/04 12:10:50;;;;;;;3.60;3.40;;;26.00;91.00;;;;;;6105600;23;20425;-83
2021/07/04 12:13:18;;;;;;;5.50;5.10;;;25.90;91.00;;;;;;6104290;23;20427;-83
2021/07/04 12:15:49;;;;;;;4.00;3.70;;;25.70;91.50;;;;;;6110961;23;20424;-81
2021/07/04 12:18:17;;;;;;;4.10;3.80;;;25.70;91.70;;;;;;6108027;23;20863;-82
2021/07/04 12:20:51;;;;;;;4.23;4.00;;;25.60;91.80;;;;;;6106009;23;20500;-83
2021/07/04 12:23:21;;;;;;;4.83;4.43;;;25.70;92.10;;;;;;6105366;23;20427;-84
2021/07/04 12:25:48;;;;;;;4.93;4.53;;;25.70;91.90;;;;;;6107482;23;20416;-84
2021/07/04 12:28:16;;;;;;;4.60;4.20;;;25.70;91.70;;;;;;6107242;23;20520;-84
2021/07/04 12:30:46;;;;;;;4.60;4.30;;;26.00;91.80;;;;;;6107500;23;20418;-82
2021/07/04 12:33:14;;;;;;;6.47;5.97;;;26.30;92.00;;;;;;6108126;23;20439;-84
2021/07/04 12:35:43;;;;;;;5.33;4.93;;;26.70;91.20;;;;;;6106495;23;20435;-84
2021/07/04 12:38:13;;;;;;;5.27;4.93;;;27.00;90.90;;;;;;6106613;23;20459;-84
2021/07/04 12:40:52;;;;;;;4.60;4.30;;;27.30;90.50;;;;;;6107196;23;20409;-84
2021/07/04 12:43:30;;;;;;;4.57;4.23;;;27.70;90.20;;;;;;6107672;23;20401;-84
2021/07/04 12:46:00;;;;;;;4.80;4.47;;;28.10;88.60;;;;;;6109129;23;20776;-84
2021/07/04 12:48:43;;;;;;;5.37;4.97;;;28.20;87.00;;;;;;6107725;23;20981;-84
2021/07/04 12:51:23;;;;;;;3.90;3.60;;;28.30;88.70;;;;;;6107354;23;20394;-84
2021/07/04 12:53:52;;;;;;;4.00;3.40;;;28.40;85.30;;;;;;6108060;23;20408;-84
2021/07/04 12:56:21;;;;;;;3.60;3.40;;;28.50;86.10;;;;;;6107200;23;20495;-84
2021/07/04 12:58:54;;;;;;;3.63;3.43;;;28.70;85.60;;;;;;6106848;23;20454;-84
2021/07/04 13:01:23;;;;;;;3.50;3.30;;;28.80;82.70;;;;;;6106591;23;20416;-84
2021/07/04 13:03:55;;;;;;;3.77;3.57;;;28.80;81.00;;;;;;6107039;23;20500;-84
2021/07/04 13:06:44;;;;;;;3.67;3.37;;;28.70;82.30;;;;;;6116974;23;20500;-84
2021/07/04 13:09:18;;;;;;;4.13;3.77;;;28.50;82.70;;;;;;6106293;23;20443;-84
2021/07/04 13:11:57;;;;;;;3.63;3.40;;;28.50;83.90;;;;;;6106237;23;20395;-84
2021/07/04 13:14:47;;;;;;;4.00;3.70;;;28.50;83.00;;;;;;6106141;23;20399;-84
2021/07/04 13:17:26;;;;;;;3.87;3.67;;;28.50;83.60;;;;;;6106956;23;20408;-84
2021/07/04 13:19:54;;;;;;;3.57;3.27;;;28.40;84.80;;;;;;6106312;23;20434;-84
2021/07/04 13:22:23;;;;;;;2.77;2.57;;;28.40;83.50;;;;;;6107071;23;20420;-84
2021/07/04 13:24:52;;;;;;;3.13;2.93;;;28.40;81.30;;;;;;6106550;23;20450;-84
2021/07/04 13:27:25;;;;;;;3.17;2.97;;;28.40;80.30;;;;;;6107485;23;20439;-84
2021/07/04 13:29:53;;;;;;;2.87;2.67;;;28.20;81.00;;;;;;6107760;23;20461;-84
2021/07/04 13:32:23;;;;;;;2.37;2.17;;;28.20;81.70;;;;;;6106962;23;20915;-84
2021/07/04 13:35:13;;;;;;;2.80;2.60;;;28.10;81.00;;;;;;6107040;23;20413;-83
2021/07/04 13:37:52;;;;;;;3.20;3.00;;;28.00;80.20;;;;;;6106398;23;20495;-84
2021/07/04 13:40:20;;;;;;;3.03;2.83;;;27.90;82.40;;;;;;6108376;23;20469;-84
2021/07/04 13:42:53;;;;;;;2.87;2.67;;;28.50;82.40;;;;;;6107831;23;20937;-84
2021/07/04 13:45:38;;;;;;;3.40;3.20;;;29.20;79.30;;;;;;6108575;23;20400;-85
2021/07/04 13:48:12;;;;;;;3.30;3.10;;;29.50;79.00;;;;;;6110264;23;20427;-85
2021/07/04 13:50:42;;;;;;;2.57;2.37;;;29.50;76.70;;;;;;6109613;23;20403;-84
2021/07/04 13:53:12;;;;;;;3.20;2.90;;;29.30;77.80;;;;;;6111914;23;20413;-85
2021/07/04 13:55:40;;;;;;;6.53;6.00;;;29.00;78.70;;;;;;6116774;23;20404;-84
2021/07/04 13:58:09;;;;;;;5.27;4.77;;;28.40;86.20;;;;;;6111443;23;20776;-84
2021/07/04 14:00:38;;;;;;;4.60;4.20;;;27.40;89.50;;;;;;6109064;23;20417;-84
2021/07/04 14:03:07;;;;;;;4.30;4.00;;;26.40;90.40;;;;;;6108858;23;20418;-84
2021/07/04 14:05:35;;;;;;;3.97;3.67;;;25.90;89.70;;;;;;6109798;23;20410;-84
2021/07/04 14:08:02;;;;;;;4.33;4.03;;;25.60;90.50;;;;;;6110223;23;20418;-84
2021/07/04 14:10:29;;;;;;;3.47;3.07;;;25.40;91.10;;;;;;6111262;23;20379;-84
2021/07/04 14:12:57;;;;;;;3.57;3.30;;;25.20;91.80;;;;;;6110041;23;20394;-84
2021/07/04 14:15:25;;;;;;;3.20;3.00;;;25.10;91.40;;;;;;6108635;23;20402;-84
2021/07/04 14:17:52;;;;;;;2.97;2.77;;;25.30;91.30;;;;;;6109451;23;20449;-84
2021/07/04 14:20:20;;;;;;;3.30;3.10;;;25.50;90.60;;;;;;6107767;23;20470;-84
2021/07/04 14:22:51;;;;;;;3.43;3.23;;;25.60;89.90;;;;;;6107856;23;20406;-84
2021/07/04 14:25:21;;;;;;;3.67;3.37;;;25.30;90.30;;;;;;6108257;23;20412;-84
2021/07/04 14:27:49;;;;;;;3.20;3.00;;;25.00;91.00;;;;;;6110066;23;20501;-84
2021/07/04 14:30:18;;;;;;;3.00;2.80;;;24.90;91.30;;;;;;6110760;23;20915;-84
2021/07/04 14:32:45;;;;;;;3.17;2.97;;;24.70;91.20;;;;;;6108936;23;20413;-84
2021/07/04 14:35:12;;;;;;;3.50;2.63;;;24.50;91.80;;;;;;6109182;23;20476;-84
2021/07/04 14:37:40;;;;;;;3.57;3.27;;;24.50;91.90;;;;;;6110642;23;20456;-84
2021/07/04 14:40:08;;;;;;;3.27;3.07;;;24.30;91.60;;;;;;6111475;23;20817;-85
2021/07/04 14:42:36;;;;;;;2.80;2.60;;;24.20;91.60;;;;;;6115707;23;20408;-84
2021/07/04 14:45:04;;;;;;;3.00;2.80;;;24.10;91.90;;;;;;6116808;23;20450;-84
2021/07/04 14:47:31;;;;;;;3.13;2.83;;;23.90;92.00;;;;;;6113005;23;20427;-84
2021/07/04 14:49:58;;;;;;;2.67;2.47;;;23.70;91.70;;;;;;6109475;23;20432;-84
2021/07/04 14:52:27;;;;;;;2.53;2.33;;;23.60;91.30;;;;;;6109947;23;20418;-85
2021/07/04 14:54:58;;;;;;;2.83;2.63;;;23.60;91.70;;;;;;6110964;23;20422;-84
2021/07/04 14:57:25;;;;;;;2.10;2.00;;;23.70;92.00;;;;;;6110257;23;20408;-86
2021/07/04 14:59:54;;;;;;;2.40;2.20;;;23.60;92.60;;;;;;6110565;23;20442;-84
2021/07/04 15:02:22;;;;;;;2.57;2.37;;;23.70;93.20;;;;;;6113245;23;20400;-85
2021/07/04 15:04:50;;;;;;;2.40;2.30;;;23.90;93.40;;;;;;6114657;23;20401;-85
2021/07/04 15:07:19;;;;;;;2.53;2.43;;;24.20;93.50;;;;;;6109802;23;20431;-86
2021/07/04 15:09:46;;;;;;;3.00;2.80;;;24.70;93.30;;;;;;6110007;23;20445;-86
2021/07/04 15:12:18;;;;;;;4.47;4.10;;;25.10;92.60;;;;;;6114575;23;20410;-85
2021/07/04 15:14:45;;;;;;;2.97;2.67;;;25.30;92.60;;;;;;6111149;23;20430;-85
2021/07/04 15:17:14;;;;;;;3.70;3.17;;;25.70;92.30;;;;;;6112251;23;20417;-85
2021/07/04 15:19:41;;;;;;;3.20;3.00;;;25.90;92.00;;;;;;6111530;23;20527;-85
2021/07/04 15:22:08;;;;;;;2.93;2.73;;;25.60;92.80;;;;;;6119166;23;20420;-85
2021/07/04 15:24:37;;;;;;;4.00;3.70;;;24.90;93.30;;;;;;6121636;23;20432;-84
2021/07/04 15:27:06;;;;;;;4.03;3.67;;;24.50;94.40;;;;;;6116551;23;20401;-86
2021/07/04 15:29:34;;;;;;;4.00;3.70;;;24.30;94.90;;;;;;6110574;23;20464;-85
2021/07/04 15:32:01;;;;;;;3.10;2.80;;;24.00;95.90;;;;;;6116552;23;20428;-84
2021/07/04 15:34:32;;;;;;;2.60;2.40;;;23.60;95.40;;;;;;6111161;23;20414;-85
2021/07/04 15:36:59;;;;;;;1.90;1.80;;;22.90;95.30;;;;;;6107718;23;20432;-85